Time;durP1;ratioP1;P1;durP2;ratioP2;P2;SDS_P1;SDS_P2;PMS_P1;PMS_P2;Temp;Humidity;BMP_temperature;BMP_pressure;BME280_temperature;BME280_humidity;BME280_pressure;Samples;Min_cycle;Max_cycle;Signal;HPM_P1;HPM_P2
2022/07/17 00:00:00;;;;;;;4.57;2.83;;;15.50;99.90;;;;;;5073507;28;20452;-75
2022/07/17 00:02:26;;;;;;;3.57;1.97;;;15.40;99.90;;;;;;5073299;28;20502;-77
2022/07/17 00:04:54;;;;;;;3.40;1.83;;;15.50;99.90;;;;;;5073540;28;20445;-76
2022/07/17 00:07:21;;;;;;;5.13;1.80;;;15.40;99.90;;;;;;5073709;28;20879;-77
2022/07/17 00:09:48;;;;;;;4.43;2.33;;;15.50;99.90;;;;;;5073623;28;20445;-76
2022/07/17 00:12:15;;;;;;;3.90;2.03;;;15.50;99.90;;;;;;5073857;28;20875;-75
2022/07/17 00:14:42;;;;;;;2.77;1.90;;;15.50;99.90;;;;;;5073626;28;20453;-77
2022/07/17 00:17:08;;;;;;;2.50;2.30;;;15.30;99.90;;;;;;5074430;28;20512;-76
2022/07/17 00:19:35;;;;;;;3.37;1.70;;;15.40;99.90;;;;;;5075059;28;20480;-76
2022/07/17 00:22:03;;;;;;;6.67;2.00;;;15.30;99.90;;;;;;5075133;28;20449;-76
2022/07/17 00:24:30;;;;;;;7.80;2.13;;;15.30;99.90;;;;;;5073792;28;20459;-76
2022/07/17 00:26:57;;;;;;;5.90;1.73;;;15.30;99.90;;;;;;5073150;28;20460;-77
2022/07/17 00:29:23;;;;;;;3.67;2.30;;;15.20;99.90;;;;;;5072733;28;20459;-77
2022/07/17 00:31:50;;;;;;;5.83;2.57;;;15.20;99.90;;;;;;5073033;28;20455;-77
2022/07/17 00:34:17;;;;;;;6.87;3.27;;;15.20;99.90;;;;;;5072619;28;20428;-76
2022/07/17 00:36:44;;;;;;;5.10;3.13;;;15.30;99.90;;;;;;5072847;28;20465;-76
2022/07/17 00:39:12;;;;;;;4.93;2.53;;;15.40;99.90;;;;;;5072660;28;20484;-77
2022/07/17 00:41:39;;;;;;;5.83;2.53;;;15.20;99.90;;;;;;5072892;28;20456;-76
2022/07/17 00:44:08;;;;;;;5.73;3.50;;;15.20;99.90;;;;;;5072915;28;20488;-77
2022/07/17 00:46:35;;;;;;;3.87;2.00;;;15.20;99.90;;;;;;5072930;28;20876;-76
2022/07/17 00:49:02;;;;;;;2.90;1.83;;;15.10;99.90;;;;;;5074877;28;20459;-77
2022/07/17 00:51:29;;;;;;;3.17;2.07;;;15.00;99.90;;;;;;5075969;28;20449;-75
2022/07/17 00:53:58;;;;;;;3.10;2.47;;;14.90;99.90;;;;;;5077005;28;20452;-74
2022/07/17 00:56:27;;;;;;;6.00;2.20;;;14.90;99.90;;;;;;5076934;28;20472;-76
2022/07/17 00:58:55;;;;;;;3.53;2.37;;;15.00;99.90;;;;;;5079119;28;20508;-75
2022/07/17 01:01:21;;;;;;;4.40;2.20;;;15.00;99.90;;;;;;5078511;28;20471;-76
2022/07/17 01:03:48;;;;;;;6.60;3.40;;;15.00;99.90;;;;;;5078065;28;20822;-75
2022/07/17 01:06:15;;;;;;;4.20;2.30;;;15.00;99.90;;;;;;5077868;28;21005;-76
2022/07/17 01:08:42;;;;;;;6.23;2.50;;;15.00;99.90;;;;;;5077861;28;20437;-76
2022/07/17 01:11:09;;;;;;;5.50;2.00;;;14.70;99.90;;;;;;5078136;28;20449;-75
2022/07/17 01:13:38;;;;;;;6.77;3.20;;;14.80;99.90;;;;;;5076296;28;20449;-76
2022/07/17 01:16:05;;;;;;;4.00;2.33;;;14.70;99.90;;;;;;5075525;28;21014;-75
2022/07/17 01:18:32;;;;;;;6.80;2.40;;;14.80;99.90;;;;;;5076100;28;20514;-75
2022/07/17 01:21:05;;;;;;;2.27;2.00;;;14.70;99.90;;;;;;5076794;28;20451;-75
2022/07/17 01:23:31;;;;;;;3.87;2.50;;;14.60;99.90;;;;;;5076507;28;20438;-76
2022/07/17 01:25:58;;;;;;;2.93;2.60;;;14.50;99.90;;;;;;5076736;28;20469;-75
2022/07/17 01:28:25;;;;;;;2.80;2.10;;;14.40;99.90;;;;;;5077114;28;20445;-76
2022/07/17 01:30:53;;;;;;;3.80;2.37;;;14.30;99.90;;;;;;5077248;28;20453;-75
2022/07/17 01:33:20;;;;;;;4.10;2.10;;;14.30;99.90;;;;;;5077396;28;20445;-77
2022/07/17 01:35:47;;;;;;;3.70;2.80;;;14.30;99.90;;;;;;5076165;28;20465;-76
2022/07/17 01:38:15;;;;;;;3.63;2.00;;;14.30;99.90;;;;;;5075438;28;20472;-76
2022/07/17 01:40:42;;;;;;;5.73;2.77;;;14.20;99.90;;;;;;5075788;28;20448;-77
2022/07/17 01:43:09;;;;;;;4.67;3.17;;;14.30;99.90;;;;;;5076877;28;20472;-76
2022/07/17 01:45:36;;;;;;;6.73;3.53;;;14.30;99.90;;;;;;5078376;28;20494;-76
2022/07/17 01:48:03;;;;;;;3.53;2.00;;;14.30;99.90;;;;;;5076492;28;20441;-76
2022/07/17 01:50:30;;;;;;;2.47;2.27;;;14.20;99.90;;;;;;5076708;28;20449;-76
2022/07/17 01:52:56;;;;;;;3.03;2.20;;;14.10;99.90;;;;;;5075590;28;20532;-76
2022/07/17 01:55:25;;;;;;;3.80;2.63;;;14.20;99.90;;;;;;5075028;28;20471;-76
2022/07/17 01:57:51;;;;;;;2.63;2.23;;;14.00;99.90;;;;;;5074978;28;20993;-76
2022/07/17 02:00:20;;;;;;;4.27;2.23;;;13.90;99.90;;;;;;5074966;28;20449;-77
2022/07/17 02:02:47;;;;;;;2.57;1.97;;;13.80;99.90;;;;;;5074936;28;20448;-76
2022/07/17 02:05:14;;;;;;;7.50;3.13;;;13.60;99.90;;;;;;5074845;28;20492;-76
2022/07/17 02:07:43;;;;;;;4.70;2.27;;;13.70;99.90;;;;;;5074624;28;20451;-76
2022/07/17 02:10:10;;;;;;;6.90;3.00;;;13.80;99.90;;;;;;5073629;28;20453;-76
2022/07/17 02:12:39;;;;;;;7.47;2.43;;;13.90;99.90;;;;;;5074668;28;20455;-76
2022/07/17 02:15:07;;;;;;;2.33;2.07;;;13.90;99.90;;;;;;5074408;28;20444;-76
2022/07/17 02:17:34;;;;;;;3.53;2.07;;;13.80;99.90;;;;;;5074931;28;20429;-76
2022/07/17 02:20:00;;;;;;;4.60;2.20;;;13.80;99.90;;;;;;5074754;28;20853;-76
2022/07/17 02:22:27;;;;;;;8.27;2.87;;;13.70;99.90;;;;;;5074901;28;20830;-75
2022/07/17 02:24:54;;;;;;;4.33;2.37;;;13.70;99.90;;;;;;5074512;28;20488;-75
2022/07/17 02:27:21;;;;;;;4.80;2.33;;;13.70;99.90;;;;;;5075268;28;20484;-75
2022/07/17 02:29:49;;;;;;;2.70;1.87;;;13.70;99.90;;;;;;5075535;28;20441;-75
2022/07/17 02:32:16;;;;;;;7.40;2.13;;;13.50;99.90;;;;;;5074553;28;20982;-76
2022/07/17 02:34:43;;;;;;;3.87;2.23;;;13.40;99.90;;;;;;5074372;28;20456;-76
2022/07/17 02:37:10;;;;;;;4.60;2.13;;;13.60;99.90;;;;;;5074273;28;20468;-76
2022/07/17 02:39:51;;;;;;;4.00;2.00;;;13.60;99.90;;;;;;5075066;28;20488;-77
2022/07/17 02:42:19;;;;;;;5.53;2.30;;;13.60;99.90;;;;;;5074282;28;20469;-77
2022/07/17 02:44:45;;;;;;;4.10;2.17;;;13.50;99.90;;;;;;5074187;28;20444;-76
2022/07/17 02:47:14;;;;;;;2.40;1.97;;;13.50;99.90;;;;;;5074174;28;20472;-76
2022/07/17 02:49:40;;;;;;;5.10;2.43;;;13.50;99.90;;;;;;5074019;28;20449;-76
2022/07/17 02:52:07;;;;;;;2.30;1.90;;;13.50;99.90;;;;;;5073852;28;20449;-76
2022/07/17 02:54:34;;;;;;;4.00;2.10;;;13.50;99.90;;;;;;5073743;28;20444;-76
2022/07/17 02:57:01;;;;;;;5.10;2.17;;;13.40;99.90;;;;;;5073633;28;20468;-77
2022/07/17 02:59:28;;;;;;;3.70;2.17;;;13.40;99.90;;;;;;5073718;28;20489;-77
2022/07/17 03:01:54;;;;;;;3.53;2.03;;;13.30;99.90;;;;;;5073726;28;20448;-77
2022/07/17 03:04:23;;;;;;;5.97;2.67;;;13.30;99.90;;;;;;5073579;28;20441;-76
2022/07/17 03:06:49;;;;;;;3.73;2.17;;;13.20;99.90;;;;;;5074181;28;20465;-76
2022/07/17 03:09:16;;;;;;;4.63;2.17;;;13.30;99.90;;;;;;5073562;28;20492;-76
2022/07/17 03:11:43;;;;;;;8.53;2.50;;;13.20;99.90;;;;;;5073574;28;20505;-77
2022/07/17 03:14:10;;;;;;;6.00;3.10;;;13.10;99.90;;;;;;5073622;28;20461;-75
2022/07/17 03:16:37;;;;;;;5.57;3.10;;;13.10;99.90;;;;;;5073205;28;20479;-76
2022/07/17 03:19:04;;;;;;;3.63;2.40;;;13.10;99.90;;;;;;5073502;28;20998;-76
2022/07/17 03:21:32;;;;;;;6.80;3.00;;;13.00;99.90;;;;;;5073232;28;20449;-76
2022/07/17 03:24:00;;;;;;;4.27;2.57;;;12.90;99.90;;;;;;5073422;28;20444;-76
2022/07/17 03:26:27;;;;;;;10.57;3.37;;;12.90;99.90;;;;;;5073344;28;20564;-76
2022/07/17 03:28:53;;;;;;;5.20;2.20;;;13.00;99.90;;;;;;5073172;28;20448;-76
2022/07/17 03:31:20;;;;;;;2.80;2.00;;;12.80;99.90;;;;;;5073502;28;20447;-76
2022/07/17 03:33:47;;;;;;;3.13;2.47;;;12.90;99.90;;;;;;5074122;28;20449;-76
2022/07/17 03:36:14;;;;;;;7.83;2.50;;;12.90;99.90;;;;;;5073500;28;20805;-76
2022/07/17 03:38:42;;;;;;;4.10;2.83;;;12.90;99.90;;;;;;5073272;28;20484;-76
2022/07/17 03:41:08;;;;;;;4.70;2.43;;;13.00;99.90;;;;;;5073416;28;20546;-77
2022/07/17 03:43:35;;;;;;;4.40;2.20;;;12.90;99.90;;;;;;5073427;28;20960;-76
2022/07/17 03:46:02;;;;;;;6.77;2.90;;;12.90;99.90;;;;;;5073821;28;20826;-76
2022/07/17 03:48:29;;;;;;;6.10;2.87;;;12.80;99.90;;;;;;5073912;28;20454;-76
2022/07/17 03:50:56;;;;;;;6.87;2.17;;;12.80;99.90;;;;;;5073393;28;20452;-76
2022/07/17 03:53:23;;;;;;;3.30;2.20;;;12.90;99.90;;;;;;5073448;28;20447;-76
2022/07/17 03:55:51;;;;;;;6.13;2.33;;;12.80;99.90;;;;;;5073527;28;20830;-76
2022/07/17 03:58:18;;;;;;;4.83;1.80;;;13.00;99.90;;;;;;5073477;28;20453;-76
2022/07/17 04:00:45;;;;;;;3.10;2.50;;;13.00;99.90;;;;;;5073319;28;21023;-76
2022/07/17 04:03:11;;;;;;;6.47;1.73;;;13.00;99.90;;;;;;5077661;28;20540;-75
2022/07/17 04:05:38;;;;;;;4.05;2.20;;;13.10;99.90;;;;;;5079947;28;20341;-75
2022/07/17 04:08:06;;;;;;;5.20;1.83;;;13.10;99.90;;;;;;5078369;28;20434;-76
2022/07/17 04:10:33;;;;;;;6.50;3.17;;;13.10;99.90;;;;;;5074167;28;20218;-76
2022/07/17 04:13:01;;;;;;;6.57;2.67;;;13.20;99.90;;;;;;5073365;28;20441;-75
2022/07/17 04:17:55;;;;;;;3.53;2.23;;;13.10;99.90;;;;;;5079399;28;20469;-78
2022/07/17 04:20:22;;;;;;;3.03;2.20;;;13.20;99.90;;;;;;5079692;28;20488;-77
2022/07/17 04:22:49;;;;;;;9.37;3.37;;;13.30;99.90;;;;;;5080425;28;20454;-77
2022/07/17 04:25:16;;;;;;;4.83;3.30;;;13.40;99.90;;;;;;5080907;28;20441;-77
2022/07/17 04:27:42;;;;;;;7.47;2.40;;;13.60;99.90;;;;;;5081556;28;20434;-78
2022/07/17 04:30:11;;;;;;;4.60;2.10;;;13.60;99.90;;;;;;5082476;28;20229;-77
2022/07/17 04:32:38;;;;;;;5.70;2.87;;;13.70;99.90;;;;;;5080858;28;20502;-77
2022/07/17 04:35:05;;;;;;;3.17;2.47;;;13.70;99.90;;;;;;5086427;28;20506;-77
2022/07/17 04:37:32;;;;;;;6.23;2.67;;;13.70;99.90;;;;;;5086057;28;20475;-77
2022/07/17 04:39:59;;;;;;;5.47;2.40;;;13.60;99.90;;;;;;5084863;28;20476;-77
2022/07/17 04:42:26;;;;;;;6.83;2.80;;;13.70;99.90;;;;;;5088672;28;20939;-77
2022/07/17 04:44:52;;;;;;;8.80;3.43;;;13.70;99.90;;;;;;5087384;28;20807;-77
2022/07/17 04:47:20;;;;;;;3.80;2.67;;;13.70;99.90;;;;;;5086509;28;20456;-77
2022/07/17 04:49:47;;;;;;;3.60;3.30;;;13.70;99.90;;;;;;5084408;28;20443;-77
2022/07/17 04:52:14;;;;;;;3.80;3.50;;;13.80;99.90;;;;;;5083776;28;20430;-77
2022/07/17 04:54:40;;;;;;;19.13;12.67;;;13.80;99.90;;;;;;5084601;28;20617;-77
2022/07/17 04:57:07;;;;;;;7.40;5.03;;;13.90;99.90;;;;;;5088305;28;20479;-77
2022/07/17 04:59:36;;;;;;;6.30;3.60;;;13.90;99.90;;;;;;5091085;28;20503;-79
2022/07/17 05:02:03;;;;;;;3.90;2.40;;;14.00;99.90;;;;;;5087876;28;20494;-79
2022/07/17 05:04:32;;;;;;;7.27;3.90;;;14.00;99.90;;;;;;5079421;28;20452;-79
2022/07/17 05:06:59;;;;;;;6.03;3.40;;;14.20;99.90;;;;;;5079501;28;20500;-79
2022/07/17 05:09:25;;;;;;;5.57;2.00;;;14.30;99.90;;;;;;5078707;28;20803;-78
2022/07/17 05:11:52;;;;;;;8.50;2.90;;;14.30;99.90;;;;;;5078456;28;20779;-79
2022/07/17 05:14:19;;;;;;;5.63;4.27;;;14.30;99.90;;;;;;5078684;28;20452;-79
2022/07/17 05:16:45;;;;;;;3.33;2.00;;;14.40;99.90;;;;;;5078431;28;20487;-79
2022/07/17 05:19:12;;;;;;;4.83;3.23;;;14.50;99.90;;;;;;5078797;28;20503;-79
2022/07/17 05:21:40;;;;;;;6.80;2.60;;;14.50;99.90;;;;;;5078660;28;20444;-79
2022/07/17 05:24:07;;;;;;;5.67;3.43;;;14.60;99.90;;;;;;5079330;28;20830;-79
2022/07/17 05:26:34;;;;;;;4.43;2.30;;;14.60;99.90;;;;;;5078311;28;21030;-79
2022/07/17 05:29:01;;;;;;;10.83;7.67;;;14.80;99.90;;;;;;5077927;28;20451;-79
2022/07/17 05:31:27;;;;;;;6.80;3.97;;;14.80;99.90;;;;;;5078295;28;20452;-79
2022/07/17 05:33:54;;;;;;;5.80;3.80;;;14.80;99.90;;;;;;5078451;28;20448;-78
2022/07/17 05:36:21;;;;;;;8.07;6.23;;;14.90;99.90;;;;;;5078121;28;21009;-79
2022/07/17 05:38:49;;;;;;;9.47;4.63;;;14.90;99.90;;;;;;5078288;28;20453;-78
2022/07/17 05:41:15;;;;;;;11.10;3.10;;;15.00;99.90;;;;;;5078555;28;20484;-78
2022/07/17 05:43:42;;;;;;;6.83;4.73;;;15.10;99.90;;;;;;5087018;28;20452;-76
2022/07/17 05:46:09;;;;;;;5.80;2.63;;;15.10;99.90;;;;;;5086862;28;20479;-79
2022/07/17 05:48:35;;;;;;;4.73;1.90;;;15.10;99.90;;;;;;5079836;28;20445;-80
2022/07/17 05:51:02;;;;;;;6.37;3.00;;;14.80;99.90;;;;;;5085228;28;20448;-78
2022/07/17 05:53:29;;;;;;;6.10;2.30;;;15.00;99.90;;;;;;5087782;28;20444;-77
2022/07/17 05:55:57;;;;;;;4.80;2.27;;;15.20;99.90;;;;;;5086754;28;20488;-76
2022/07/17 05:58:24;;;;;;;4.60;2.10;;;15.30;99.90;;;;;;5087309;28;20453;-77
2022/07/17 06:00:50;;;;;;;3.50;2.40;;;15.20;99.90;;;;;;5084652;28;20484;-76
2022/07/17 06:03:17;;;;;;;3.43;1.90;;;15.30;99.90;;;;;;5078394;28;20448;-78
2022/07/17 06:05:44;;;;;;;2.40;1.90;;;15.40;99.90;;;;;;5078752;28;20468;-78
2022/07/17 06:08:11;;;;;;;3.87;2.00;;;15.40;99.90;;;;;;5083050;28;20444;-76
2022/07/17 06:10:38;;;;;;;5.23;2.53;;;15.30;99.90;;;;;;5089039;28;20453;-76
2022/07/17 06:13:06;;;;;;;5.93;2.20;;;15.20;99.90;;;;;;5085571;28;21030;-78
2022/07/17 06:15:33;;;;;;;4.00;2.23;;;15.00;99.90;;;;;;5077652;28;20519;-78
2022/07/17 06:18:01;;;;;;;4.03;2.53;;;15.30;99.90;;;;;;5077013;28;20464;-78
2022/07/17 06:20:28;;;;;;;5.83;2.13;;;15.40;99.90;;;;;;5077440;28;20512;-80
2022/07/17 06:22:55;;;;;;;4.00;1.60;;;15.50;99.90;;;;;;5086248;28;20449;-78
2022/07/17 06:25:22;;;;;;;4.77;2.00;;;15.60;99.90;;;;;;5083722;28;20445;-80
2022/07/17 06:27:49;;;;;;;3.20;1.90;;;15.50;99.90;;;;;;5079441;28;20449;-79
2022/07/17 06:30:18;;;;;;;8.00;3.77;;;15.60;99.90;;;;;;5078802;28;20440;-78
2022/07/17 06:32:45;;;;;;;3.97;2.10;;;15.60;99.90;;;;;;5080391;28;20472;-78
2022/07/17 06:35:12;;;;;;;3.47;1.73;;;15.70;99.90;;;;;;5079690;28;21005;-79
2022/07/17 06:37:39;;;;;;;9.90;2.50;;;15.90;99.90;;;;;;5077096;28;20498;-79
2022/07/17 06:40:07;;;;;;;3.67;1.80;;;15.90;99.90;;;;;;5078759;28;20480;-78
2022/07/17 06:42:33;;;;;;;5.90;2.00;;;15.90;99.90;;;;;;5078466;28;20455;-79
2022/07/17 06:45:00;;;;;;;2.37;1.60;;;15.90;99.90;;;;;;5077448;28;20453;-79
2022/07/17 06:47:28;;;;;;;4.73;2.40;;;15.50;99.90;;;;;;5077004;28;20808;-79
2022/07/17 06:49:55;;;;;;;4.30;2.33;;;15.60;99.90;;;;;;5076560;28;20445;-79
2022/07/17 06:52:22;;;;;;;4.93;1.93;;;15.60;99.90;;;;;;5076770;28;20445;-79
2022/07/17 06:54:48;;;;;;;4.00;1.70;;;15.60;99.90;;;;;;5081490;28;20441;-77
2022/07/17 06:57:15;;;;;;;4.87;2.20;;;15.70;99.90;;;;;;5088334;28;20461;-77
2022/07/17 06:59:42;;;;;;;4.00;1.97;;;15.80;99.90;;;;;;5088487;28;20479;-77
2022/07/17 07:02:08;;;;;;;3.67;2.37;;;15.90;99.90;;;;;;5079250;28;20453;-79
2022/07/17 07:04:36;;;;;;;4.63;1.93;;;15.90;99.90;;;;;;5079836;28;20453;-78
2022/07/17 07:07:03;;;;;;;4.70;2.17;;;15.90;99.90;;;;;;5077788;28;20472;-79
2022/07/17 07:09:30;;;;;;;5.90;2.00;;;16.00;99.90;;;;;;5076963;28;20453;-79
2022/07/17 07:11:57;;;;;;;2.80;1.57;;;16.10;99.90;;;;;;5077346;28;20959;-79
2022/07/17 07:14:24;;;;;;;4.50;1.90;;;16.10;99.90;;;;;;5076505;28;20456;-78
2022/07/17 07:16:50;;;;;;;6.83;2.00;;;16.00;99.90;;;;;;5076348;28;20496;-79
2022/07/17 07:19:17;;;;;;;4.50;2.40;;;16.10;99.90;;;;;;5076904;28;20811;-79
2022/07/17 07:21:45;;;;;;;4.30;2.20;;;16.20;99.90;;;;;;5075862;28;20476;-79
2022/07/17 07:24:12;;;;;;;4.13;2.40;;;16.10;99.90;;;;;;5076084;28;20441;-79
2022/07/17 07:26:38;;;;;;;5.07;2.03;;;16.20;99.90;;;;;;5079365;28;20471;-79
2022/07/17 07:29:05;;;;;;;6.53;2.40;;;16.10;99.90;;;;;;5079293;28;20552;-78
2022/07/17 07:31:32;;;;;;;4.70;2.03;;;16.20;99.90;;;;;;5082005;28;20491;-78
2022/07/17 07:33:59;;;;;;;3.80;2.47;;;16.30;99.90;;;;;;5084537;28;20452;-77
2022/07/17 07:36:27;;;;;;;4.67;1.90;;;16.20;99.90;;;;;;5086977;28;20529;-78
2022/07/17 07:38:55;;;;;;;10.37;3.30;;;16.20;99.90;;;;;;5086573;28;20531;-78
2022/07/17 07:41:22;;;;;;;4.50;2.00;;;16.20;99.90;;;;;;5085750;28;20473;-78
2022/07/17 07:43:48;;;;;;;4.60;2.10;;;16.40;99.90;;;;;;5084486;28;20962;-78
2022/07/17 07:46:15;;;;;;;4.00;2.20;;;16.50;99.90;;;;;;5087036;28;20460;-78
2022/07/17 07:48:42;;;;;;;4.33;2.10;;;16.70;99.90;;;;;;5082334;28;20440;-78
2022/07/17 07:51:09;;;;;;;4.10;1.97;;;16.80;99.90;;;;;;5080751;28;20827;-77
2022/07/17 07:53:35;;;;;;;3.33;2.10;;;16.70;99.90;;;;;;5077638;28;20451;-78
2022/07/17 07:56:04;;;;;;;4.50;2.33;;;16.60;99.90;;;;;;5076658;28;21006;-79
2022/07/17 07:58:31;;;;;;;2.77;2.53;;;16.60;99.90;;;;;;5079205;28;20610;-78
2022/07/17 08:00:57;;;;;;;5.57;2.10;;;16.60;99.90;;;;;;5081090;28;20483;-78
2022/07/17 08:03:24;;;;;;;3.53;2.33;;;16.40;99.90;;;;;;5081499;28;20456;-79
2022/07/17 08:05:51;;;;;;;4.40;2.83;;;16.40;99.90;;;;;;5078841;28;20472;-79
2022/07/17 08:08:17;;;;;;;9.43;2.07;;;16.30;99.90;;;;;;5081005;28;20444;-79
2022/07/17 08:10:44;;;;;;;2.40;1.83;;;16.40;99.90;;;;;;5084820;28;20433;-79
2022/07/17 08:13:12;;;;;;;4.17;1.83;;;16.50;99.90;;;;;;5081974;28;20459;-78
2022/07/17 08:15:39;;;;;;;6.13;1.90;;;16.60;99.90;;;;;;5083081;28;20502;-78
2022/07/17 08:18:06;;;;;;;8.47;2.40;;;16.50;99.90;;;;;;5082546;28;20429;-78
2022/07/17 08:20:33;;;;;;;3.97;3.10;;;16.50;99.90;;;;;;5081567;28;20483;-79
2022/07/17 08:22:59;;;;;;;3.27;2.20;;;16.50;99.90;;;;;;5081489;28;20440;-79
2022/07/17 08:25:28;;;;;;;4.07;2.10;;;16.30;99.90;;;;;;5084671;28;20444;-77
2022/07/17 08:27:55;;;;;;;5.70;2.43;;;16.40;99.90;;;;;;5088872;28;20449;-77
2022/07/17 08:30:23;;;;;;;4.40;1.97;;;16.50;99.90;;;;;;5088469;28;20445;-77
2022/07/17 08:32:50;;;;;;;6.23;2.07;;;16.60;99.90;;;;;;5086250;28;20836;-77
2022/07/17 08:35:17;;;;;;;2.87;1.73;;;16.70;99.90;;;;;;5082238;28;20448;-78
2022/07/17 08:37:45;;;;;;;4.50;1.70;;;16.80;99.90;;;;;;5081894;28;20471;-78
2022/07/17 08:40:17;;;;;;;6.40;2.03;;;16.70;99.90;;;;;;5082918;28;20834;-77
2022/07/17 08:42:44;;;;;;;5.10;2.27;;;16.50;99.90;;;;;;5084612;28;20425;-77
2022/07/17 08:45:11;;;;;;;2.50;2.30;;;16.60;99.90;;;;;;5081632;28;20455;-78
2022/07/17 08:47:39;;;;;;;3.60;2.00;;;16.70;99.90;;;;;;5080663;28;20468;-78
2022/07/17 08:50:07;;;;;;;3.03;2.73;;;16.90;99.90;;;;;;5079537;28;20440;-77
2022/07/17 08:52:34;;;;;;;4.17;2.13;;;17.00;99.90;;;;;;5079569;28;20816;-79
2022/07/17 08:55:01;;;;;;;5.83;2.17;;;17.20;99.90;;;;;;5081170;28;20484;-79
2022/07/17 08:57:28;;;;;;;3.87;2.50;;;17.30;99.90;;;;;;5080233;28;20476;-79
2022/07/17 08:59:54;;;;;;;3.37;2.20;;;17.40;99.90;;;;;;5078202;28;20943;-78
2022/07/17 09:02:21;;;;;;;4.03;2.00;;;17.60;99.90;;;;;;5078486;28;20448;-79
2022/07/17 09:04:55;;;;;;;3.47;3.17;;;17.60;99.90;;;;;;5078486;28;20451;-79
2022/07/17 09:07:21;;;;;;;5.20;2.20;;;17.70;99.90;;;;;;5078851;28;20467;-79
2022/07/17 09:09:50;;;;;;;4.50;2.40;;;17.60;99.90;;;;;;5079541;28;20455;-79
2022/07/17 09:12:17;;;;;;;3.93;2.17;;;17.50;99.90;;;;;;5081080;28;20768;-77
2022/07/17 09:14:44;;;;;;;3.23;1.90;;;17.20;99.90;;;;;;5078851;28;20817;-79
2022/07/17 09:17:12;;;;;;;6.93;1.90;;;17.20;99.90;;;;;;5077882;28;20474;-78
2022/07/17 09:19:42;;;;;;;6.90;2.40;;;17.30;99.90;;;;;;5077803;28;20444;-79
2022/07/17 09:22:11;;;;;;;3.60;2.10;;;17.30;99.90;;;;;;5077680;28;20518;-80
2022/07/17 09:24:41;;;;;;;2.90;2.20;;;17.40;99.90;;;;;;5077591;28;20455;-79
2022/07/17 09:27:07;;;;;;;5.33;2.40;;;17.60;99.90;;;;;;5076347;28;20952;-79
2022/07/17 09:29:34;;;;;;;3.83;1.97;;;17.50;99.90;;;;;;5077955;28;20455;-78
2022/07/17 09:32:01;;;;;;;3.77;1.90;;;17.60;99.90;;;;;;5078216;28;21091;-79
2022/07/17 09:34:28;;;;;;;4.83;2.30;;;17.70;99.90;;;;;;5078668;28;20445;-79
2022/07/17 09:37:01;;;;;;;8.97;2.33;;;17.70;99.90;;;;;;5078022;28;20473;-79
2022/07/17 09:39:37;;;;;;;3.67;2.20;;;17.70;99.90;;;;;;5080580;28;20456;-78
2022/07/17 09:42:04;;;;;;;11.03;2.27;;;17.80;99.90;;;;;;5082662;28;20476;-76
2022/07/17 09:44:30;;;;;;;4.40;2.07;;;17.80;99.90;;;;;;5083920;28;20441;-77
2022/07/17 09:46:57;;;;;;;4.87;2.40;;;17.60;99.90;;;;;;5082662;28;20475;-79
2022/07/17 09:49:27;;;;;;;3.70;2.43;;;17.70;99.90;;;;;;5081090;28;20452;-78
2022/07/17 09:51:54;;;;;;;4.03;2.33;;;17.70;99.90;;;;;;5079621;28;20962;-79
2022/07/17 09:54:23;;;;;;;3.00;2.50;;;17.80;99.90;;;;;;5079271;28;20456;-78
2022/07/17 09:56:52;;;;;;;5.47;2.13;;;17.80;99.90;;;;;;5077569;28;20469;-78
2022/07/17 09:59:19;;;;;;;5.07;2.03;;;17.50;99.90;;;;;;5077591;28;20444;-80
2022/07/17 10:01:49;;;;;;;6.53;2.80;;;17.60;99.90;;;;;;5080376;28;20480;-77
2022/07/17 10:04:17;;;;;;;6.67;2.70;;;17.70;99.90;;;;;;5085883;28;20484;-78
2022/07/17 10:06:44;;;;;;;4.27;2.00;;;17.70;99.90;;;;;;5078833;28;20519;-78
2022/07/17 10:09:13;;;;;;;2.20;2.00;;;18.00;99.90;;;;;;5077117;28;20467;-80
2022/07/17 10:11:41;;;;;;;2.83;2.60;;;18.20;99.90;;;;;;5077167;28;20445;-79
2022/07/17 10:14:13;;;;;;;5.63;3.20;;;18.40;99.90;;;;;;5077433;28;20453;-80
2022/07/17 10:16:41;;;;;;;5.03;2.50;;;18.60;99.90;;;;;;5090202;22;20860;-75
2022/07/17 10:19:18;;;;;;;4.43;2.10;;;18.50;99.90;;;;;;5074051;28;20445;-76
2022/07/17 10:21:56;;;;;;;2.83;1.73;;;18.50;99.90;;;;;;5073691;28;20856;-76
2022/07/17 10:24:24;;;;;;;7.80;2.80;;;18.70;99.90;;;;;;5074111;28;20528;-76
2022/07/17 10:26:51;;;;;;;2.50;2.30;;;18.70;99.90;;;;;;5073736;28;20465;-76
2022/07/17 10:29:33;;;;;;;4.23;2.73;;;18.90;99.90;;;;;;5073930;28;20472;-77
2022/07/17 10:32:02;;;;;;;3.17;1.73;;;19.00;99.90;;;;;;5073793;28;20429;-76
2022/07/17 10:34:41;;;;;;;3.33;2.10;;;18.90;99.90;;;;;;5074006;28;20453;-77
2022/07/17 10:37:18;;;;;;;4.97;2.33;;;18.90;99.90;;;;;;5072988;28;21021;-76
2022/07/17 10:40:00;;;;;;;4.90;1.80;;;18.80;99.90;;;;;;5073450;28;20445;-76
2022/07/17 10:42:57;;;;;;;4.60;2.53;;;18.40;99.90;;;;;;5073386;28;20897;-77
2022/07/17 10:45:28;;;;;;;6.47;3.00;;;18.50;99.90;;;;;;5039188;28;20472;-76
2022/07/17 10:47:58;;;;;;;4.80;2.03;;;18.50;99.90;;;;;;5074382;28;20465;-76
2022/07/17 10:50:28;;;;;;;5.30;1.67;;;18.60;99.90;;;;;;5075590;28;20436;-76
2022/07/17 10:53:04;;;;;;;13.20;2.77;;;18.70;99.90;;;;;;5074772;28;20429;-76
2022/07/17 10:55:32;;;;;;;2.63;1.97;;;18.90;99.90;;;;;;5073845;28;20425;-75
2022/07/17 10:57:59;;;;;;;2.80;2.27;;;19.00;99.90;;;;;;5073810;28;20464;-77
2022/07/17 11:00:27;;;;;;;2.27;2.03;;;19.20;99.90;;;;;;5073599;28;20441;-76
2022/07/17 11:02:54;;;;;;;6.97;3.10;;;19.20;99.90;;;;;;5073301;28;20489;-75
2022/07/17 11:05:21;;;;;;;5.60;2.63;;;19.30;99.90;;;;;;5073631;28;20861;-76
2022/07/17 11:07:53;;;;;;;4.80;2.07;;;19.40;99.90;;;;;;5073814;28;20468;-76
2022/07/17 11:10:20;;;;;;;3.90;2.13;;;19.30;99.90;;;;;;5076714;28;20496;-75
2022/07/17 11:12:46;;;;;;;3.67;1.90;;;19.60;99.90;;;;;;5083680;28;20452;-76
2022/07/17 11:15:13;;;;;;;6.10;2.30;;;19.30;99.90;;;;;;5080277;28;20448;-76
2022/07/17 11:17:47;;;;;;;6.10;2.37;;;19.40;99.90;;;;;;5073226;28;20477;-76
2022/07/17 11:20:15;;;;;;;6.70;3.87;;;19.40;99.90;;;;;;5073684;28;20433;-76
2022/07/17 11:22:42;;;;;;;3.23;2.17;;;19.40;99.90;;;;;;5073273;28;20847;-76
2022/07/17 11:25:11;;;;;;;6.33;2.60;;;19.30;99.90;;;;;;5073106;28;20457;-76
2022/07/17 11:27:38;;;;;;;2.97;2.27;;;19.30;99.90;;;;;;5073035;28;20465;-76
2022/07/17 11:30:06;;;;;;;3.03;2.40;;;19.40;99.90;;;;;;5073094;28;20441;-76
2022/07/17 11:32:33;;;;;;;4.90;2.50;;;19.40;99.90;;;;;;5073371;28;20479;-76
2022/07/17 11:35:01;;;;;;;4.67;1.97;;;19.60;99.90;;;;;;5073196;28;20519;-76
2022/07/17 11:37:30;;;;;;;6.93;2.93;;;19.70;99.90;;;;;;5072943;28;20490;-75
2022/07/17 11:39:58;;;;;;;3.70;1.80;;;19.70;99.90;;;;;;5074561;28;20456;-76
2022/07/17 11:42:26;;;;;;;3.13;1.97;;;19.70;99.90;;;;;;5074548;28;20483;-76
2022/07/17 11:44:56;;;;;;;6.40;2.40;;;19.80;99.90;;;;;;5074360;28;20449;-77
2022/07/17 11:47:26;;;;;;;3.70;2.67;;;19.90;99.90;;;;;;5073052;28;20469;-77
2022/07/17 11:50:04;;;;;;;5.37;1.90;;;19.90;99.90;;;;;;5072585;28;21005;-76
2022/07/17 11:52:42;;;;;;;4.97;2.60;;;20.00;99.90;;;;;;5073117;28;20440;-76
2022/07/17 11:55:09;;;;;;;2.40;2.20;;;20.00;99.90;;;;;;5072382;28;20448;-76
2022/07/17 11:57:43;;;;;;;2.73;2.33;;;19.90;99.90;;;;;;5072423;28;20547;-76
2022/07/17 12:00:14;;;;;;;4.40;2.43;;;19.90;99.90;;;;;;5072670;28;20969;-77
2022/07/17 12:02:41;;;;;;;7.10;2.07;;;19.90;99.90;;;;;;5072625;28;20465;-76
2022/07/17 12:05:08;;;;;;;6.50;2.40;;;19.90;99.90;;;;;;5072830;28;20448;-77
2022/07/17 12:07:48;;;;;;;3.03;1.97;;;20.00;99.90;;;;;;5072468;28;20491;-77
2022/07/17 12:10:16;;;;;;;10.07;2.00;;;19.90;99.90;;;;;;5072916;28;20777;-77
2022/07/17 12:12:54;;;;;;;5.13;2.07;;;19.90;99.90;;;;;;5072198;28;20453;-76
2022/07/17 12:15:21;;;;;;;5.90;2.10;;;20.00;99.90;;;;;;5073065;28;20836;-77
2022/07/17 12:17:48;;;;;;;3.37;2.10;;;20.00;99.90;;;;;;5072259;28;20501;-76
2022/07/17 12:20:15;;;;;;;3.73;3.03;;;20.10;99.90;;;;;;5072878;28;20445;-77
2022/07/17 12:22:48;;;;;;;2.87;2.20;;;20.20;99.90;;;;;;5072777;28;20506;-77
2022/07/17 12:25:26;;;;;;;2.70;2.00;;;20.40;99.90;;;;;;5072392;28;20439;-77
2022/07/17 12:27:53;;;;;;;4.60;1.83;;;20.40;99.90;;;;;;5072269;28;20468;-76
2022/07/17 12:30:20;;;;;;;6.50;2.37;;;20.50;99.90;;;;;;5072462;28;20827;-77
2022/07/17 12:32:48;;;;;;;6.30;3.20;;;20.30;99.90;;;;;;5072385;28;20452;-77
2022/07/17 12:35:15;;;;;;;2.93;1.73;;;20.30;99.90;;;;;;5072350;28;20823;-76
2022/07/17 12:37:42;;;;;;;3.80;1.80;;;20.50;99.90;;;;;;5072486;28;20813;-77
2022/07/17 12:40:11;;;;;;;3.97;1.97;;;20.50;99.90;;;;;;5072417;28;20452;-77
2022/07/17 12:42:37;;;;;;;3.00;1.60;;;20.60;99.90;;;;;;5071923;28;20975;-76
2022/07/17 12:45:05;;;;;;;2.23;1.70;;;20.30;99.90;;;;;;5072386;28;20452;-77
2022/07/17 12:47:32;;;;;;;3.33;1.90;;;20.40;99.90;;;;;;5072368;28;20994;-77
2022/07/17 12:49:58;;;;;;;2.43;1.97;;;20.60;99.90;;;;;;5073113;28;20448;-75